sensor_id;sensor_type;location;lat;lon;timestamp;P1;durP1;ratioP1;P2;durP2;ratioP2
57249;SDS011;43102;52.014;-0.680;2023-12-04T00:00:00;5.60;;;4.50;;
57249;SDS011;43102;52.014;-0.680;2023-12-04T00:01:00;5.60;;;4.50;;
57249;SDS011;43102;52.014;-0.680;2023-12-04T00:02:00;5.60;;;4.50;;
57249;SDS011;43102;52.014;-0.680;2023-12-04T00:03:00;5.60;;;4.50;;
57249;SDS011;43102;52.014;-0.680;2023-12-04T00:04:01;5.60;;;4.50;;
57249;SDS011;43102;52.014;-0.680;2023-12-04T00:05:00;5.60;;;4.50;;
57249;SDS011;43102;52.014;-0.680;2023-12-04T00:06:00;5.60;;;4.50;;
57249;SDS011;43102;52.014;-0.680;2023-12-04T00:07:00;5.60;;;4.50;;
57249;SDS011;43102;52.014;-0.680;2023-12-04T00:08:00;5.60;;;4.50;;
57249;SDS011;43102;52.014;-0.680;2023-12-04T00:09:00;5.60;;;4.50;;
57249;SDS011;43102;52.014;-0.680;2023-12-04T00:10:00;5.60;;;4.50;;
57249;SDS011;43102;52.014;-0.680;2023-12-04T00:11:00;5.60;;;4.50;;
57249;SDS011;43102;52.014;-0.680;2023-12-04T00:12:00;5.60;;;4.50;;
57249;SDS011;43102;52.014;-0.680;2023-12-04T00:13:00;5.60;;;4.50;;
57249;SDS011;43102;52.014;-0.680;2023-12-04T00:14:00;5.60;;;4.50;;
57249;SDS011;43102;52.014;-0.680;2023-12-04T00:15:00;5.60;;;4.50;;
57249;SDS011;43102;52.014;-0.680;2023-12-04T00:16:01;5.60;;;4.50;;
57249;SDS011;43102;52.014;-0.680;2023-12-04T00:17:00;5.60;;;4.50;;
57249;SDS011;43102;52.014;-0.680;2023-12-04T00:18:00;5.60;;;4.50;;
57249;SDS011;43102;52.014;-0.680;2023-12-04T00:19:00;5.60;;;4.50;;
57249;SDS011;43102;52.014;-0.680;2023-12-04T00:20:00;5.60;;;4.50;;
57249;SDS011;43102;52.014;-0.680;2023-12-04T00:21:00;5.60;;;4.50;;
57249;SDS011;43102;52.014;-0.680;2023-12-04T00:22:00;5.60;;;4.50;;
57249;SDS011;43102;52.014;-0.680;2023-12-04T00:23:00;5.60;;;4.50;;
57249;SDS011;43102;52.014;-0.680;2023-12-04T00:24:00;5.60;;;4.50;;
57249;SDS011;43102;52.014;-0.680;2023-12-04T00:25:00;5.60;;;4.50;;
57249;SDS011;43102;52.014;-0.680;2023-12-04T00:26:00;5.60;;;4.50;;
57249;SDS011;43102;52.014;-0.680;2023-12-04T00:27:00;5.60;;;4.50;;
57249;SDS011;43102;52.014;-0.680;2023-12-04T00:28:00;5.60;;;4.50;;
57249;SDS011;43102;52.014;-0.680;2023-12-04T00:29:00;5.60;;;4.50;;
57249;SDS011;43102;52.014;-0.680;2023-12-04T00:30:03;7.40;;;3.90;;
57249;SDS011;43102;52.014;-0.680;2023-12-04T00:31:00;7.40;;;3.90;;
57249;SDS011;43102;52.014;-0.680;2023-12-04T00:32:00;7.40;;;3.90;;
57249;SDS011;43102;52.014;-0.680;2023-12-04T00:33:00;7.40;;;3.90;;
57249;SDS011;43102;52.014;-0.680;2023-12-04T00:34:01;7.40;;;3.90;;
57249;SDS011;43102;52.014;-0.680;2023-12-04T00:35:00;7.40;;;3.90;;
57249;SDS011;43102;52.014;-0.680;2023-12-04T00:36:00;7.40;;;3.90;;
57249;SDS011;43102;52.014;-0.680;2023-12-04T00:37:00;7.40;;;3.90;;
57249;SDS011;43102;52.014;-0.680;2023-12-04T00:38:00;7.40;;;3.90;;
57249;SDS011;43102;52.014;-0.680;2023-12-04T00:39:00;7.40;;;3.90;;
57249;SDS011;43102;52.014;-0.680;2023-12-04T00:40:00;7.40;;;3.90;;
57249;SDS011;43102;52.014;-0.680;2023-12-04T00:41:00;7.40;;;3.90;;
57249;SDS011;43102;52.014;-0.680;2023-12-04T00:42:00;7.40;;;3.90;;
57249;SDS011;43102;52.014;-0.680;2023-12-04T00:43:00;7.40;;;3.90;;
57249;SDS011;43102;52.014;-0.680;2023-12-04T00:44:00;7.40;;;3.90;;
57249;SDS011;43102;52.014;-0.680;2023-12-04T00:45:01;7.40;;;3.90;;
57249;SDS011;43102;52.014;-0.680;2023-12-04T00:46:01;7.40;;;3.90;;
57249;SDS011;43102;52.014;-0.680;2023-12-04T00:47:00;7.40;;;3.90;;
57249;SDS011;43102;52.014;-0.680;2023-12-04T00:48:01;7.40;;;3.90;;
57249;SDS011;43102;52.014;-0.680;2023-12-04T00:49:00;7.40;;;3.90;;
57249;SDS011;43102;52.014;-0.680;2023-12-04T00:50:00;7.40;;;3.90;;
57249;SDS011;43102;52.014;-0.680;2023-12-04T00:51:00;7.40;;;3.90;;
57249;SDS011;43102;52.014;-0.680;2023-12-04T00:52:00;7.40;;;3.90;;
57249;SDS011;43102;52.014;-0.680;2023-12-04T00:53:01;7.40;;;3.90;;
57249;SDS011;43102;52.014;-0.680;2023-12-04T00:54:01;7.40;;;3.90;;
57249;SDS011;43102;52.014;-0.680;2023-12-04T00:55:00;7.40;;;3.90;;
57249;SDS011;43102;52.014;-0.680;2023-12-04T00:56:00;7.40;;;3.90;;
57249;SDS011;43102;52.014;-0.680;2023-12-04T00:57:00;7.40;;;3.90;;
57249;SDS011;43102;52.014;-0.680;2023-12-04T00:58:00;7.40;;;3.90;;
57249;SDS011;43102;52.014;-0.680;2023-12-04T00:59:00;7.40;;;3.90;;
57249;SDS011;43102;52.014;-0.680;2023-12-04T01:00:01;6.10;;;3.60;;
57249;SDS011;43102;52.014;-0.680;2023-12-04T01:01:00;6.10;;;3.60;;
57249;SDS011;43102;52.014;-0.680;2023-12-04T01:02:01;6.10;;;3.60;;
57249;SDS011;43102;52.014;-0.680;2023-12-04T01:03:00;6.10;;;3.60;;
57249;SDS011;43102;52.014;-0.680;2023-12-04T01:04:00;6.10;;;3.60;;
57249;SDS011;43102;52.014;-0.680;2023-12-04T01:05:00;6.10;;;3.60;;
57249;SDS011;43102;52.014;-0.680;2023-12-04T01:06:00;6.10;;;3.60;;
57249;SDS011;43102;52.014;-0.680;2023-12-04T01:07:01;6.10;;;3.60;;
57249;SDS011;43102;52.014;-0.680;2023-12-04T01:08:00;6.10;;;3.60;;
57249;SDS011;43102;52.014;-0.680;2023-12-04T01:09:00;6.10;;;3.60;;
57249;SDS011;43102;52.014;-0.680;2023-12-04T01:10:00;6.10;;;3.60;;
57249;SDS011;43102;52.014;-0.680;2023-12-04T01:11:00;6.10;;;3.60;;
57249;SDS011;43102;52.014;-0.680;2023-12-04T01:12:00;6.10;;;3.60;;
57249;SDS011;43102;52.014;-0.680;2023-12-04T01:13:00;6.10;;;3.60;;
57249;SDS011;43102;52.014;-0.680;2023-12-04T01:14:00;6.10;;;3.60;;
57249;SDS011;43102;52.014;-0.680;2023-12-04T01:15:01;6.10;;;3.60;;
57249;SDS011;43102;52.014;-0.680;2023-12-04T01:16:00;6.10;;;3.60;;
57249;SDS011;43102;52.014;-0.680;2023-12-04T01:17:00;6.10;;;3.60;;
57249;SDS011;43102;52.014;-0.680;2023-12-04T01:18:00;6.10;;;3.60;;
57249;SDS011;43102;52.014;-0.680;2023-12-04T01:19:00;6.10;;;3.60;;
57249;SDS011;43102;52.014;-0.680;2023-12-04T01:20:00;6.10;;;3.60;;
57249;SDS011;43102;52.014;-0.680;2023-12-04T01:21:00;6.10;;;3.60;;
57249;SDS011;43102;52.014;-0.680;2023-12-04T01:22:00;6.10;;;3.60;;
57249;SDS011;43102;52.014;-0.680;2023-12-04T01:23:00;6.10;;;3.60;;
57249;SDS011;43102;52.014;-0.680;2023-12-04T01:24:00;6.10;;;3.60;;
57249;SDS011;43102;52.014;-0.680;2023-12-04T01:25:00;6.10;;;3.60;;
57249;SDS011;43102;52.014;-0.680;2023-12-04T01:26:01;6.10;;;3.60;;
57249;SDS011;43102;52.014;-0.680;2023-12-04T01:27:00;6.10;;;3.60;;
57249;SDS011;43102;52.014;-0.680;2023-12-04T01:28:00;6.10;;;3.60;;
57249;SDS011;43102;52.014;-0.680;2023-12-04T01:29:00;6.10;;;3.60;;
57249;SDS011;43102;52.014;-0.680;2023-12-04T01:30:01;6.20;;;3.10;;
57249;SDS011;43102;52.014;-0.680;2023-12-04T01:31:00;6.20;;;3.10;;
57249;SDS011;43102;52.014;-0.680;2023-12-04T01:32:00;6.20;;;3.10;;
57249;SDS011;43102;52.014;-0.680;2023-12-04T01:33:00;6.20;;;3.10;;
57249;SDS011;43102;52.014;-0.680;2023-12-04T01:34:01;6.20;;;3.10;;
57249;SDS011;43102;52.014;-0.680;2023-12-04T01:35:01;6.20;;;3.10;;
57249;SDS011;43102;52.014;-0.680;2023-12-04T01:36:02;6.20;;;3.10;;
57249;SDS011;43102;52.014;-0.680;2023-12-04T01:37:00;6.20;;;3.10;;
57249;SDS011;43102;52.014;-0.680;2023-12-04T01:38:00;6.20;;;3.10;;
57249;SDS011;43102;52.014;-0.680;2023-12-04T01:39:00;6.20;;;3.10;;
57249;SDS011;43102;52.014;-0.680;2023-12-04T01:40:01;6.20;;;3.10;;
57249;SDS011;43102;52.014;-0.680;2023-12-04T01:41:00;6.20;;;3.10;;
57249;SDS011;43102;52.014;-0.680;2023-12-04T01:42:00;6.20;;;3.10;;
57249;SDS011;43102;52.014;-0.680;2023-12-04T01:43:01;6.20;;;3.10;;
57249;SDS011;43102;52.014;-0.680;2023-12-04T01:44:00;6.20;;;3.10;;
57249;SDS011;43102;52.014;-0.680;2023-12-04T01:45:00;6.20;;;3.10;;
57249;SDS011;43102;52.014;-0.680;2023-12-04T01:46:01;6.20;;;3.10;;
57249;SDS011;43102;52.014;-0.680;2023-12-04T01:47:00;6.20;;;3.10;;
57249;SDS011;43102;52.014;-0.680;2023-12-04T01:48:01;6.20;;;3.10;;
57249;SDS011;43102;52.014;-0.680;2023-12-04T01:49:03;6.20;;;3.10;;
57249;SDS011;43102;52.014;-0.680;2023-12-04T01:50:01;6.20;;;3.10;;
57249;SDS011;43102;52.014;-0.680;2023-12-04T01:51:04;6.20;;;3.10;;
57249;SDS011;43102;52.014;-0.680;2023-12-04T01:52:01;6.20;;;3.10;;
57249;SDS011;43102;52.014;-0.680;2023-12-04T01:53:01;6.20;;;3.10;;
57249;SDS011;43102;52.014;-0.680;2023-12-04T01:54:03;6.20;;;3.10;;
57249;SDS011;43102;52.014;-0.680;2023-12-04T01:55:01;6.20;;;3.10;;
57249;SDS011;43102;52.014;-0.680;2023-12-04T01:56:00;6.20;;;3.10;;
57249;SDS011;43102;52.014;-0.680;2023-12-04T01:57:02;6.20;;;3.10;;
57249;SDS011;43102;52.014;-0.680;2023-12-04T01:58:02;6.20;;;3.10;;
57249;SDS011;43102;52.014;-0.680;2023-12-04T01:59:00;6.20;;;3.10;;
57249;SDS011;43102;52.014;-0.680;2023-12-04T02:00:01;4.70;;;3.40;;
57249;SDS011;43102;52.014;-0.680;2023-12-04T02:01:02;4.70;;;3.40;;
57249;SDS011;43102;52.014;-0.680;2023-12-04T02:02:02;4.70;;;3.40;;
57249;SDS011;43102;52.014;-0.680;2023-12-04T02:03:01;4.70;;;3.40;;
57249;SDS011;43102;52.014;-0.680;2023-12-04T02:04:02;4.70;;;3.40;;
57249;SDS011;43102;52.014;-0.680;2023-12-04T02:05:01;4.70;;;3.40;;
57249;SDS011;43102;52.014;-0.680;2023-12-04T02:06:03;4.70;;;3.40;;
57249;SDS011;43102;52.014;-0.680;2023-12-04T02:07:00;4.70;;;3.40;;
57249;SDS011;43102;52.014;-0.680;2023-12-04T02:08:01;4.70;;;3.40;;
57249;SDS011;43102;52.014;-0.680;2023-12-04T02:09:01;4.70;;;3.40;;
57249;SDS011;43102;52.014;-0.680;2023-12-04T02:10:00;4.70;;;3.40;;
57249;SDS011;43102;52.014;-0.680;2023-12-04T02:11:00;4.70;;;3.40;;
57249;SDS011;43102;52.014;-0.680;2023-12-04T02:12:00;4.70;;;3.40;;
57249;SDS011;43102;52.014;-0.680;2023-12-04T02:13:01;4.70;;;3.40;;
57249;SDS011;43102;52.014;-0.680;2023-12-04T02:14:00;4.70;;;3.40;;
57249;SDS011;43102;52.014;-0.680;2023-12-04T02:15:01;4.70;;;3.40;;
57249;SDS011;43102;52.014;-0.680;2023-12-04T02:16:06;4.70;;;3.40;;
57249;SDS011;43102;52.014;-0.680;2023-12-04T02:17:02;4.70;;;3.40;;
57249;SDS011;43102;52.014;-0.680;2023-12-04T02:18:01;4.70;;;3.40;;
57249;SDS011;43102;52.014;-0.680;2023-12-04T02:19:01;4.70;;;3.40;;
57249;SDS011;43102;52.014;-0.680;2023-12-04T02:20:01;4.70;;;3.40;;
57249;SDS011;43102;52.014;-0.680;2023-12-04T02:21:01;4.70;;;3.40;;
57249;SDS011;43102;52.014;-0.680;2023-12-04T02:22:00;4.70;;;3.40;;
57249;SDS011;43102;52.014;-0.680;2023-12-04T02:23:01;4.70;;;3.40;;
57249;SDS011;43102;52.014;-0.680;2023-12-04T02:24:00;4.70;;;3.40;;
57249;SDS011;43102;52.014;-0.680;2023-12-04T02:25:01;4.70;;;3.40;;
57249;SDS011;43102;52.014;-0.680;2023-12-04T02:26:07;4.70;;;3.40;;
57249;SDS011;43102;52.014;-0.680;2023-12-04T02:27:07;4.70;;;3.40;;
57249;SDS011;43102;52.014;-0.680;2023-12-04T02:28:02;4.70;;;3.40;;
57249;SDS011;43102;52.014;-0.680;2023-12-04T02:29:05;4.70;;;3.40;;
57249;SDS011;43102;52.014;-0.680;2023-12-04T02:30:01;8.10;;;3.70;;
57249;SDS011;43102;52.014;-0.680;2023-12-04T02:31:04;8.10;;;3.70;;
57249;SDS011;43102;52.014;-0.680;2023-12-04T02:32:03;8.10;;;3.70;;
57249;SDS011;43102;52.014;-0.680;2023-12-04T02:33:03;8.10;;;3.70;;
57249;SDS011;43102;52.014;-0.680;2023-12-04T02:34:01;8.10;;;3.70;;
57249;SDS011;43102;52.014;-0.680;2023-12-04T02:35:03;8.10;;;3.70;;
57249;SDS011;43102;52.014;-0.680;2023-12-04T02:36:02;8.10;;;3.70;;
57249;SDS011;43102;52.014;-0.680;2023-12-04T02:37:01;8.10;;;3.70;;
57249;SDS011;43102;52.014;-0.680;2023-12-04T02:38:01;8.10;;;3.70;;
57249;SDS011;43102;52.014;-0.680;2023-12-04T02:39:01;8.10;;;3.70;;
57249;SDS011;43102;52.014;-0.680;2023-12-04T02:40:01;8.10;;;3.70;;
57249;SDS011;43102;52.014;-0.680;2023-12-04T02:41:00;8.10;;;3.70;;
57249;SDS011;43102;52.014;-0.680;2023-12-04T02:42:00;8.10;;;3.70;;
57249;SDS011;43102;52.014;-0.680;2023-12-04T02:43:00;8.10;;;3.70;;
57249;SDS011;43102;52.014;-0.680;2023-12-04T02:44:00;8.10;;;3.70;;
57249;SDS011;43102;52.014;-0.680;2023-12-04T02:45:00;8.10;;;3.70;;
57249;SDS011;43102;52.014;-0.680;2023-12-04T02:46:00;8.10;;;3.70;;
57249;SDS011;43102;52.014;-0.680;2023-12-04T02:47:00;8.10;;;3.70;;
57249;SDS011;43102;52.014;-0.680;2023-12-04T02:48:00;8.10;;;3.70;;
57249;SDS011;43102;52.014;-0.680;2023-12-04T02:49:00;8.10;;;3.70;;
57249;SDS011;43102;52.014;-0.680;2023-12-04T02:50:00;8.10;;;3.70;;
57249;SDS011;43102;52.014;-0.680;2023-12-04T02:51:01;8.10;;;3.70;;
57249;SDS011;43102;52.014;-0.680;2023-12-04T02:52:00;8.10;;;3.70;;
57249;SDS011;43102;52.014;-0.680;2023-12-04T02:53:00;8.10;;;3.70;;
57249;SDS011;43102;52.014;-0.680;2023-12-04T02:54:00;8.10;;;3.70;;
57249;SDS011;43102;52.014;-0.680;2023-12-04T02:55:01;8.10;;;3.70;;
57249;SDS011;43102;52.014;-0.680;2023-12-04T02:56:00;8.10;;;3.70;;
57249;SDS011;43102;52.014;-0.680;2023-12-04T02:57:00;8.10;;;3.70;;
57249;SDS011;43102;52.014;-0.680;2023-12-04T02:58:01;8.10;;;3.70;;
57249;SDS011;43102;52.014;-0.680;2023-12-04T02:59:00;8.10;;;3.70;;
57249;SDS011;43102;52.014;-0.680;2023-12-04T03:00:00;4.80;;;3.40;;
57249;SDS011;43102;52.014;-0.680;2023-12-04T03:01:00;4.80;;;3.40;;
57249;SDS011;43102;52.014;-0.680;2023-12-04T03:02:00;4.80;;;3.40;;
57249;SDS011;43102;52.014;-0.680;2023-12-04T03:03:00;4.80;;;3.40;;
57249;SDS011;43102;52.014;-0.680;2023-12-04T03:04:01;4.80;;;3.40;;
57249;SDS011;43102;52.014;-0.680;2023-12-04T03:05:00;4.80;;;3.40;;
57249;SDS011;43102;52.014;-0.680;2023-12-04T03:06:00;4.80;;;3.40;;
57249;SDS011;43102;52.014;-0.680;2023-12-04T03:07:01;4.80;;;3.40;;
57249;SDS011;43102;52.014;-0.680;2023-12-04T03:08:00;4.80;;;3.40;;
57249;SDS011;43102;52.014;-0.680;2023-12-04T03:09:00;4.80;;;3.40;;
57249;SDS011;43102;52.014;-0.680;2023-12-04T03:10:01;4.80;;;3.40;;
57249;SDS011;43102;52.014;-0.680;2023-12-04T03:11:01;4.80;;;3.40;;
57249;SDS011;43102;52.014;-0.680;2023-12-04T03:12:00;4.80;;;3.40;;
57249;SDS011;43102;52.014;-0.680;2023-12-04T03:13:00;4.80;;;3.40;;
57249;SDS011;43102;52.014;-0.680;2023-12-04T03:14:01;4.80;;;3.40;;
57249;SDS011;43102;52.014;-0.680;2023-12-04T03:15:00;4.80;;;3.40;;
57249;SDS011;43102;52.014;-0.680;2023-12-04T03:16:00;4.80;;;3.40;;
57249;SDS011;43102;52.014;-0.680;2023-12-04T03:17:00;4.80;;;3.40;;
57249;SDS011;43102;52.014;-0.680;2023-12-04T03:18:01;4.80;;;3.40;;
57249;SDS011;43102;52.014;-0.680;2023-12-04T03:19:00;4.80;;;3.40;;
57249;SDS011;43102;52.014;-0.680;2023-12-04T03:20:00;4.80;;;3.40;;
57249;SDS011;43102;52.014;-0.680;2023-12-04T03:21:00;4.80;;;3.40;;
57249;SDS011;43102;52.014;-0.680;2023-12-04T03:22:01;4.80;;;3.40;;
57249;SDS011;43102;52.014;-0.680;2023-12-04T03:23:00;4.80;;;3.40;;
57249;SDS011;43102;52.014;-0.680;2023-12-04T03:24:00;4.80;;;3.40;;
57249;SDS011;43102;52.014;-0.680;2023-12-04T03:25:00;4.80;;;3.40;;
57249;SDS011;43102;52.014;-0.680;2023-12-04T03:26:00;4.80;;;3.40;;
57249;SDS011;43102;52.014;-0.680;2023-12-04T03:27:00;4.80;;;3.40;;
57249;SDS011;43102;52.014;-0.680;2023-12-04T03:28:00;4.80;;;3.40;;
57249;SDS011;43102;52.014;-0.680;2023-12-04T03:29:00;4.80;;;3.40;;
57249;SDS011;43102;52.014;-0.680;2023-12-04T03:30:00;4.40;;;3.40;;
57249;SDS011;43102;52.014;-0.680;2023-12-04T03:31:00;4.40;;;3.40;;
57249;SDS011;43102;52.014;-0.680;2023-12-04T03:32:00;4.40;;;3.40;;
57249;SDS011;43102;52.014;-0.680;2023-12-04T03:33:00;4.40;;;3.40;;
57249;SDS011;43102;52.014;-0.680;2023-12-04T03:34:00;4.40;;;3.40;;
57249;SDS011;43102;52.014;-0.680;2023-12-04T03:35:01;4.40;;;3.40;;
57249;SDS011;43102;52.014;-0.680;2023-12-04T03:36:00;4.40;;;3.40;;
57249;SDS011;43102;52.014;-0.680;2023-12-04T03:37:00;4.40;;;3.40;;
57249;SDS011;43102;52.014;-0.680;2023-12-04T03:38:00;4.40;;;3.40;;
57249;SDS011;43102;52.014;-0.680;2023-12-04T03:39:00;4.40;;;3.40;;
57249;SDS011;43102;52.014;-0.680;2023-12-04T03:40:00;4.40;;;3.40;;
57249;SDS011;43102;52.014;-0.680;2023-12-04T03:41:00;4.40;;;3.40;;
57249;SDS011;43102;52.014;-0.680;2023-12-04T03:42:00;4.40;;;3.40;;
57249;SDS011;43102;52.014;-0.680;2023-12-04T03:43:00;4.40;;;3.40;;
57249;SDS011;43102;52.014;-0.680;2023-12-04T03:44:00;4.40;;;3.40;;
57249;SDS011;43102;52.014;-0.680;2023-12-04T03:45:00;4.40;;;3.40;;
57249;SDS011;43102;52.014;-0.680;2023-12-04T03:46:00;4.40;;;3.40;;
57249;SDS011;43102;52.014;-0.680;2023-12-04T03:47:00;4.40;;;3.40;;
57249;SDS011;43102;52.014;-0.680;2023-12-04T03:48:01;4.40;;;3.40;;
57249;SDS011;43102;52.014;-0.680;2023-12-04T03:49:01;4.40;;;3.40;;
57249;SDS011;43102;52.014;-0.680;2023-12-04T03:50:00;4.40;;;3.40;;
57249;SDS011;43102;52.014;-0.680;2023-12-04T03:51:00;4.40;;;3.40;;
57249;SDS011;43102;52.014;-0.680;2023-12-04T03:52:00;4.40;;;3.40;;
57249;SDS011;43102;52.014;-0.680;2023-12-04T03:53:00;4.40;;;3.40;;
57249;SDS011;43102;52.014;-0.680;2023-12-04T03:54:00;4.40;;;3.40;;
57249;SDS011;43102;52.014;-0.680;2023-12-04T03:55:00;4.40;;;3.40;;
57249;SDS011;43102;52.014;-0.680;2023-12-04T03:56:00;4.40;;;3.40;;
57249;SDS011;43102;52.014;-0.680;2023-12-04T03:57:00;4.40;;;3.40;;
57249;SDS011;43102;52.014;-0.680;2023-12-04T03:58:00;4.40;;;3.40;;
57249;SDS011;43102;52.014;-0.680;2023-12-04T03:59:00;4.40;;;3.40;;
57249;SDS011;43102;52.014;-0.680;2023-12-04T04:00:00;4.00;;;3.10;;
57249;SDS011;43102;52.014;-0.680;2023-12-04T04:01:00;4.00;;;3.10;;
57249;SDS011;43102;52.014;-0.680;2023-12-04T04:02:00;4.00;;;3.10;;
57249;SDS011;43102;52.014;-0.680;2023-12-04T04:03:00;4.00;;;3.10;;
57249;SDS011;43102;52.014;-0.680;2023-12-04T04:04:00;4.00;;;3.10;;
57249;SDS011;43102;52.014;-0.680;2023-12-04T04:05:00;4.00;;;3.10;;
57249;SDS011;43102;52.014;-0.680;2023-12-04T04:06:00;4.00;;;3.10;;
57249;SDS011;43102;52.014;-0.680;2023-12-04T04:07:00;4.00;;;3.10;;
57249;SDS011;43102;52.014;-0.680;2023-12-04T04:08:00;4.00;;;3.10;;
57249;SDS011;43102;52.014;-0.680;2023-12-04T04:09:00;4.00;;;3.10;;
57249;SDS011;43102;52.014;-0.680;2023-12-04T04:10:00;4.00;;;3.10;;
57249;SDS011;43102;52.014;-0.680;2023-12-04T04:11:00;4.00;;;3.10;;
57249;SDS011;43102;52.014;-0.680;2023-12-04T04:12:00;4.00;;;3.10;;
57249;SDS011;43102;52.014;-0.680;2023-12-04T04:13:00;4.00;;;3.10;;
57249;SDS011;43102;52.014;-0.680;2023-12-04T04:14:00;4.00;;;3.10;;
57249;SDS011;43102;52.014;-0.680;2023-12-04T04:15:01;4.00;;;3.10;;
57249;SDS011;43102;52.014;-0.680;2023-12-04T04:16:01;4.00;;;3.10;;
57249;SDS011;43102;52.014;-0.680;2023-12-04T04:17:00;4.00;;;3.10;;
57249;SDS011;43102;52.014;-0.680;2023-12-04T04:18:00;4.00;;;3.10;;
57249;SDS011;43102;52.014;-0.680;2023-12-04T04:19:01;4.00;;;3.10;;
57249;SDS011;43102;52.014;-0.680;2023-12-04T04:20:00;4.00;;;3.10;;
57249;SDS011;43102;52.014;-0.680;2023-12-04T04:21:00;4.00;;;3.10;;
57249;SDS011;43102;52.014;-0.680;2023-12-04T04:22:00;4.00;;;3.10;;
57249;SDS011;43102;52.014;-0.680;2023-12-04T04:23:00;4.00;;;3.10;;
57249;SDS011;43102;52.014;-0.680;2023-12-04T04:24:00;4.00;;;3.10;;
57249;SDS011;43102;52.014;-0.680;2023-12-04T04:25:01;4.00;;;3.10;;
57249;SDS011;43102;52.014;-0.680;2023-12-04T04:26:00;4.00;;;3.10;;
57249;SDS011;43102;52.014;-0.680;2023-12-04T04:27:00;4.00;;;3.10;;
57249;SDS011;43102;52.014;-0.680;2023-12-04T04:28:00;4.00;;;3.10;;
57249;SDS011;43102;52.014;-0.680;2023-12-04T04:29:00;4.00;;;3.10;;
57249;SDS011;43102;52.014;-0.680;2023-12-04T04:30:01;4.50;;;3.30;;
57249;SDS011;43102;52.014;-0.680;2023-12-04T04:31:00;4.50;;;3.30;;
57249;SDS011;43102;52.014;-0.680;2023-12-04T04:32:00;4.50;;;3.30;;
57249;SDS011;43102;52.014;-0.680;2023-12-04T04:33:00;4.50;;;3.30;;
57249;SDS011;43102;52.014;-0.680;2023-12-04T04:34:01;4.50;;;3.30;;
57249;SDS011;43102;52.014;-0.680;2023-12-04T04:35:01;4.50;;;3.30;;
57249;SDS011;43102;52.014;-0.680;2023-12-04T04:36:00;4.50;;;3.30;;
57249;SDS011;43102;52.014;-0.680;2023-12-04T04:37:00;4.50;;;3.30;;
57249;SDS011;43102;52.014;-0.680;2023-12-04T04:38:00;4.50;;;3.30;;
57249;SDS011;43102;52.014;-0.680;2023-12-04T04:39:00;4.50;;;3.30;;
57249;SDS011;43102;52.014;-0.680;2023-12-04T04:40:00;4.50;;;3.30;;
57249;SDS011;43102;52.014;-0.680;2023-12-04T04:41:00;4.50;;;3.30;;
57249;SDS011;43102;52.014;-0.680;2023-12-04T04:42:00;4.50;;;3.30;;
57249;SDS011;43102;52.014;-0.680;2023-12-04T04:43:00;4.50;;;3.30;;
57249;SDS011;43102;52.014;-0.680;2023-12-04T04:44:00;4.50;;;3.30;;
57249;SDS011;43102;52.014;-0.680;2023-12-04T04:45:00;4.50;;;3.30;;
57249;SDS011;43102;52.014;-0.680;2023-12-04T04:46:00;4.50;;;3.30;;
57249;SDS011;43102;52.014;-0.680;2023-12-04T04:47:00;4.50;;;3.30;;
57249;SDS011;43102;52.014;-0.680;2023-12-04T04:48:00;4.50;;;3.30;;
57249;SDS011;43102;52.014;-0.680;2023-12-04T04:49:01;4.50;;;3.30;;
57249;SDS011;43102;52.014;-0.680;2023-12-04T04:50:00;4.50;;;3.30;;
57249;SDS011;43102;52.014;-0.680;2023-12-04T04:51:00;4.50;;;3.30;;
57249;SDS011;43102;52.014;-0.680;2023-12-04T04:52:00;4.50;;;3.30;;
57249;SDS011;43102;52.014;-0.680;2023-12-04T04:53:00;4.50;;;3.30;;
57249;SDS011;43102;52.014;-0.680;2023-12-04T04:54:01;4.50;;;3.30;;
57249;SDS011;43102;52.014;-0.680;2023-12-04T04:55:00;4.50;;;3.30;;
57249;SDS011;43102;52.014;-0.680;2023-12-04T04:56:01;4.50;;;3.30;;
57249;SDS011;43102;52.014;-0.680;2023-12-04T04:57:00;4.50;;;3.30;;
57249;SDS011;43102;52.014;-0.680;2023-12-04T04:58:01;4.50;;;3.30;;
57249;SDS011;43102;52.014;-0.680;2023-12-04T04:59:00;4.50;;;3.30;;
57249;SDS011;43102;52.014;-0.680;2023-12-04T05:00:00;4.90;;;3.70;;
57249;SDS011;43102;52.014;-0.680;2023-12-04T05:01:01;4.90;;;3.70;;
57249;SDS011;43102;52.014;-0.680;2023-12-04T05:02:01;4.90;;;3.70;;
57249;SDS011;43102;52.014;-0.680;2023-12-04T05:03:00;4.90;;;3.70;;
57249;SDS011;43102;52.014;-0.680;2023-12-04T05:04:00;4.90;;;3.70;;
57249;SDS011;43102;52.014;-0.680;2023-12-04T05:05:02;4.90;;;3.70;;
57249;SDS011;43102;52.014;-0.680;2023-12-04T05:06:00;4.90;;;3.70;;
57249;SDS011;43102;52.014;-0.680;2023-12-04T05:07:00;4.90;;;3.70;;
57249;SDS011;43102;52.014;-0.680;2023-12-04T05:08:00;4.90;;;3.70;;
57249;SDS011;43102;52.014;-0.680;2023-12-04T05:09:00;4.90;;;3.70;;
57249;SDS011;43102;52.014;-0.680;2023-12-04T05:10:00;4.90;;;3.70;;
57249;SDS011;43102;52.014;-0.680;2023-12-04T05:11:00;4.90;;;3.70;;
57249;SDS011;43102;52.014;-0.680;2023-12-04T05:12:00;4.90;;;3.70;;
57249;SDS011;43102;52.014;-0.680;2023-12-04T05:13:01;4.90;;;3.70;;
57249;SDS011;43102;52.014;-0.680;2023-12-04T05:14:00;4.90;;;3.70;;
57249;SDS011;43102;52.014;-0.680;2023-12-04T05:15:00;4.90;;;3.70;;
57249;SDS011;43102;52.014;-0.680;2023-12-04T05:16:00;4.90;;;3.70;;
57249;SDS011;43102;52.014;-0.680;2023-12-04T05:17:00;4.90;;;3.70;;
57249;SDS011;43102;52.014;-0.680;2023-12-04T05:18:01;4.90;;;3.70;;
57249;SDS011;43102;52.014;-0.680;2023-12-04T05:19:01;4.90;;;3.70;;
57249;SDS011;43102;52.014;-0.680;2023-12-04T05:20:01;4.90;;;3.70;;
57249;SDS011;43102;52.014;-0.680;2023-12-04T05:21:00;4.90;;;3.70;;
57249;SDS011;43102;52.014;-0.680;2023-12-04T05:22:00;4.90;;;3.70;;
57249;SDS011;43102;52.014;-0.680;2023-12-04T05:23:00;4.90;;;3.70;;
57249;SDS011;43102;52.014;-0.680;2023-12-04T05:24:00;4.90;;;3.70;;
57249;SDS011;43102;52.014;-0.680;2023-12-04T05:25:01;4.90;;;3.70;;
57249;SDS011;43102;52.014;-0.680;2023-12-04T05:26:00;4.90;;;3.70;;
57249;SDS011;43102;52.014;-0.680;2023-12-04T05:27:00;4.90;;;3.70;;
57249;SDS011;43102;52.014;-0.680;2023-12-04T05:28:00;4.90;;;3.70;;
57249;SDS011;43102;52.014;-0.680;2023-12-04T05:29:00;4.90;;;3.70;;
57249;SDS011;43102;52.014;-0.680;2023-12-04T05:30:00;4.90;;;3.70;;
57249;SDS011;43102;52.014;-0.680;2023-12-04T05:31:00;5.30;;;3.30;;
57249;SDS011;43102;52.014;-0.680;2023-12-04T05:32:00;5.30;;;3.30;;
57249;SDS011;43102;52.014;-0.680;2023-12-04T05:33:01;5.30;;;3.30;;
57249;SDS011;43102;52.014;-0.680;2023-12-04T05:34:00;5.30;;;3.30;;
57249;SDS011;43102;52.014;-0.680;2023-12-04T05:35:00;5.30;;;3.30;;
57249;SDS011;43102;52.014;-0.680;2023-12-04T05:36:01;5.30;;;3.30;;
57249;SDS011;43102;52.014;-0.680;2023-12-04T05:37:00;5.30;;;3.30;;
57249;SDS011;43102;52.014;-0.680;2023-12-04T05:38:00;5.30;;;3.30;;
57249;SDS011;43102;52.014;-0.680;2023-12-04T05:39:03;5.30;;;3.30;;
57249;SDS011;43102;52.014;-0.680;2023-12-04T05:40:00;5.30;;;3.30;;
57249;SDS011;43102;52.014;-0.680;2023-12-04T05:41:00;5.30;;;3.30;;
57249;SDS011;43102;52.014;-0.680;2023-12-04T05:42:00;5.30;;;3.30;;
57249;SDS011;43102;52.014;-0.680;2023-12-04T05:43:00;5.30;;;3.30;;
57249;SDS011;43102;52.014;-0.680;2023-12-04T05:44:00;5.30;;;3.30;;
57249;SDS011;43102;52.014;-0.680;2023-12-04T05:45:00;5.30;;;3.30;;
57249;SDS011;43102;52.014;-0.680;2023-12-04T05:46:00;5.30;;;3.30;;
57249;SDS011;43102;52.014;-0.680;2023-12-04T05:47:00;5.30;;;3.30;;
57249;SDS011;43102;52.014;-0.680;2023-12-04T05:48:01;5.30;;;3.30;;
57249;SDS011;43102;52.014;-0.680;2023-12-04T05:49:01;5.30;;;3.30;;
57249;SDS011;43102;52.014;-0.680;2023-12-04T05:50:01;5.30;;;3.30;;
57249;SDS011;43102;52.014;-0.680;2023-12-04T05:51:00;5.30;;;3.30;;
57249;SDS011;43102;52.014;-0.680;2023-12-04T05:52:00;5.30;;;3.30;;
57249;SDS011;43102;52.014;-0.680;2023-12-04T05:53:00;5.30;;;3.30;;
57249;SDS011;43102;52.014;-0.680;2023-12-04T05:54:00;5.30;;;3.30;;
57249;SDS011;43102;52.014;-0.680;2023-12-04T05:55:00;5.30;;;3.30;;